SUD009 ULLI-UWGG
Flight info
| Callsign | SUD009 |
|---|---|
| Flight time | N/A |
| Altitude | 35000 |
| Route | SUGIN1B SUGIN T873 NIRGI T73 DESUD P164 GAKLU N869 RANTO |
| Aircraft | A320/M-SDFGHILORVWY/S |
Departure
| Time | N/A |
|---|---|
| Airport | Pulkovo Airport (ULLI) |
Arrival
| Time | 2026-04-21 21:46 |
|---|---|
| Airport | Nizhny Novgorod / Strigino International Airport (UWGG) |
| Time | Latitude | Longitude | Altitude | Speed | Heading |
|---|---|---|---|---|---|
| 2026-04-21 21:45 | 56.23858 | 43.79269 | 261 ft | 0 kts | 181° |
| 2026-04-21 21:47 | 56.23848 | 43.79268 | 261 ft | 4 kts | 181° |
| 2026-04-21 21:47 | 56.23799 | 43.79265 | 261 ft | 9 kts | 183° |
| 2026-04-21 21:47 | 56.23717 | 43.79255 | 261 ft | 14 kts | 185° |
| 2026-04-21 21:47 | 56.23604 | 43.79237 | 261 ft | 18 kts | 183° |
| 2026-04-21 21:48 | 56.23463 | 43.79215 | 261 ft | 22 kts | 187° |
| 2026-04-21 21:48 | 56.23299 | 43.79163 | 261 ft | 26 kts | 191° |
| 2026-04-21 21:48 | 56.23130 | 43.79100 | 260 ft | 23 kts | 192° |
| 2026-04-21 21:48 | 56.22963 | 43.79040 | 260 ft | 26 kts | 191° |
| 2026-04-21 21:49 | 56.22896 | 43.79038 | 260 ft | 4 kts | 143° |
| 2026-04-21 21:49 | 56.22885 | 43.79101 | 260 ft | 8 kts | 107° |
| 2026-04-21 21:49 | 56.22830 | 43.79124 | 260 ft | 12 kts | 198° |
| 2026-04-21 21:49 | 56.22739 | 43.79070 | 260 ft | 16 kts | 198° |
| 2026-04-21 21:50 | 56.22637 | 43.78949 | 260 ft | 19 kts | 211° |
| 2026-04-21 21:50 | 56.22519 | 43.78890 | 260 ft | 15 kts | 194° |
| 2026-04-21 21:50 | 56.22406 | 43.78813 | 260 ft | 19 kts | 198° |
| 2026-04-21 21:50 | 56.22289 | 43.78768 | 260 ft | 0 kts | 192° |
| 2026-04-21 21:51 | 56.22276 | 43.78763 | 260 ft | 4 kts | 192° |
| 2026-04-21 21:51 | 56.22243 | 43.78798 | 260 ft | 7 kts | 118° |
| 2026-04-21 21:52 | 56.22234 | 43.78862 | 260 ft | 0 kts | 102° |